Time;durP1;ratioP1;P1;durP2;ratioP2;P2;SDS_P1;SDS_P2;PMS_P1;PMS_P2;Temp;Humidity;BMP_temperature;BMP_pressure;BME280_temperature;BME280_humidity;BME280_pressure;Samples;Min_cycle;Max_cycle;Signal;HPM_P1;HPM_P2
2023/10/22 00:00:09;;;;;;;2.28;1.42;;;;;;;;;;5778956;28;20520;-67
2023/10/22 00:03:00;;;;;;;2.25;1.92;;;;;;;;;;5777676;28;20047;-70
2023/10/22 00:05:51;;;;;;;5.75;1.67;;;;;;;;;;5778965;28;20075;-67
2023/10/22 00:08:42;;;;;;;2.42;1.85;;;;;;;;;;5775035;28;20098;-68
2023/10/22 00:11:33;;;;;;;2.70;1.88;;;;;;;;;;5775399;28;20218;-67
2023/10/22 00:14:23;;;;;;;6.10;3.13;;;;;;;;;;5775177;28;20113;-68
2023/10/22 00:17:15;;;;;;;10.30;2.42;;;;;;;;;;5775196;28;20506;-68
2023/10/22 00:20:07;;;;;;;2.22;1.75;;;;;;;;;;5775155;28;20039;-69
2023/10/22 00:22:58;;;;;;;11.88;2.50;;;;;;;;;;5775460;28;20047;-68
2023/10/22 00:25:49;;;;;;;3.88;2.65;;;;;;;;;;5774954;28;20048;-68
2023/10/22 00:28:39;;;;;;;5.82;2.65;;;;;;;;;;5774975;28;20432;-68
2023/10/22 00:31:30;;;;;;;4.65;1.83;;;;;;;;;;5774935;28;20508;-68
2023/10/22 00:34:21;;;;;;;8.38;2.50;;;;;;;;;;5774814;28;20055;-68
2023/10/22 00:37:12;;;;;;;7.20;1.55;;;;;;;;;;5774639;28;20055;-68
2023/10/22 00:40:03;;;;;;;1.35;1.00;;;;;;;;;;5774882;28;20058;-68
2023/10/22 00:42:55;;;;;;;0.82;0.50;;;;;;;;;;5775196;28;20054;-67
2023/10/22 00:45:46;;;;;;;0.77;0.70;;;;;;;;;;5774581;28;20179;-67
2023/10/22 00:48:37;;;;;;;1.20;1.00;;;;;;;;;;5774469;28;20050;-68
2023/10/22 00:51:28;;;;;;;2.42;1.33;;;;;;;;;;5757486;28;20054;-68
2023/10/22 00:54:19;;;;;;;2.60;1.48;;;;;;;;;;5773204;28;20520;-68
2023/10/22 00:57:11;;;;;;;1.35;1.10;;;;;;;;;;5774305;28;20519;-68
2023/10/22 01:00:03;;;;;;;9.88;3.90;;;;;;;;;;5774319;28;20043;-68
2023/10/22 01:02:54;;;;;;;12.70;5.55;;;;;;;;;;5773149;28;20043;-67
2023/10/22 01:05:45;;;;;;;2.28;1.85;;;;;;;;;;5774214;28;20047;-67
2023/10/22 01:08:38;;;;;;;2.00;1.42;;;;;;;;;;5772945;28;20590;-67
2023/10/22 01:11:29;;;;;;;3.25;2.10;;;;;;;;;;5774062;28;20083;-67
2023/10/22 01:14:20;;;;;;;5.63;2.17;;;;;;;;;;5773954;28;20395;-67
2023/10/22 01:17:11;;;;;;;1.58;1.48;;;;;;;;;;5773701;28;20055;-68
2023/10/22 01:20:01;;;;;;;5.47;3.03;;;;;;;;;;5772798;28;20421;-68
2023/10/22 01:22:52;;;;;;;7.90;4.15;;;;;;;;;;5774272;28;20553;-67
2023/10/22 01:25:43;;;;;;;15.18;6.05;;;;;;;;;;5773683;28;20533;-68
2023/10/22 01:28:35;;;;;;;17.65;5.60;;;;;;;;;;5773740;28;20067;-67
2023/10/22 01:31:26;;;;;;;6.53;2.75;;;;;;;;;;5773613;28;20047;-68
2023/10/22 01:34:17;;;;;;;8.02;3.38;;;;;;;;;;5773529;28;20505;-67
2023/10/22 01:37:07;;;;;;;12.80;3.20;;;;;;;;;;5773336;28;20048;-68
2023/10/22 01:39:59;;;;;;;2.25;0.73;;;;;;;;;;5774025;28;20422;-67
2023/10/22 01:42:51;;;;;;;1.52;0.90;;;;;;;;;;5773399;28;20452;-68
2023/10/22 01:45:42;;;;;;;1.45;1.05;;;;;;;;;;5773407;28;20069;-68
2023/10/22 01:48:33;;;;;;;1.52;1.00;;;;;;;;;;5773250;28;20047;-67
2023/10/22 01:51:24;;;;;;;1.55;0.98;;;;;;;;;;5773034;28;20046;-67
2023/10/22 01:54:15;;;;;;;2.95;1.25;;;;;;;;;;5771877;28;20047;-68
2023/10/22 01:57:06;;;;;;;1.15;0.70;;;;;;;;;;5773135;28;20047;-68
2023/10/22 01:59:57;;;;;;;1.98;0.77;;;;;;;;;;5773508;28;20054;-68
2023/10/22 02:02:48;;;;;;;0.63;0.63;;;;;;;;;;5772936;28;20054;-67
2023/10/22 02:05:38;;;;;;;8.95;1.30;;;;;;;;;;5772867;28;20072;-68
2023/10/22 02:08:29;;;;;;;1.67;1.08;;;;;;;;;;5772801;28;20055;-68
2023/10/22 02:11:21;;;;;;;1.20;0.98;;;;;;;;;;5773000;28;20433;-68
2023/10/22 02:14:12;;;;;;;3.67;1.38;;;;;;;;;;5772606;28;20039;-68
2023/10/22 02:17:03;;;;;;;1.00;0.90;;;;;;;;;;5772756;28;20054;-68
2023/10/22 02:19:54;;;;;;;1.70;1.33;;;;;;;;;;5773280;28;20516;-68
2023/10/22 02:22:45;;;;;;;1.35;1.10;;;;;;;;;;5772686;28;20670;-68
2023/10/22 02:25:36;;;;;;;0.55;0.55;;;;;;;;;;5772752;28;20069;-68
2023/10/22 02:28:26;;;;;;;2.03;1.10;;;;;;;;;;5772577;28;20051;-68
2023/10/22 02:31:17;;;;;;;1.08;0.88;;;;;;;;;;5772166;28;20043;-68
2023/10/22 02:34:09;;;;;;;1.80;0.85;;;;;;;;;;5772600;28;20046;-68
2023/10/22 02:36:59;;;;;;;1.33;1.15;;;;;;;;;;5773027;28;20055;-68
2023/10/22 02:39:50;;;;;;;4.13;1.13;;;;;;;;;;5772825;28;20055;-68
2023/10/22 02:42:41;;;;;;;1.35;0.63;;;;;;;;;;5772220;28;20062;-68
2023/10/22 02:45:32;;;;;;;1.02;0.90;;;;;;;;;;5772371;28;20051;-68
2023/10/22 02:48:23;;;;;;;0.98;0.80;;;;;;;;;;5772253;28;20074;-68
2023/10/22 02:51:14;;;;;;;0.95;0.88;;;;;;;;;;5772205;28;20059;-69
2023/10/22 02:54:05;;;;;;;5.40;1.92;;;;;;;;;;5772328;28;20454;-68
2023/10/22 02:56:56;;;;;;;5.70;2.53;;;;;;;;;;5772635;28;20047;-68
2023/10/22 02:59:47;;;;;;;4.20;3.03;;;;;;;;;;5772161;28;20049;-68
2023/10/22 03:02:42;;;;;;;2.83;1.95;;;;;;;;;;5772135;28;20051;-68
2023/10/22 03:05:34;;;;;;;1.20;1.10;;;;;;;;;;5772033;28;20047;-68
2023/10/22 03:08:26;;;;;;;2.53;1.13;;;;;;;;;;5772029;28;20051;-68
2023/10/22 03:11:18;;;;;;;1.00;0.90;;;;;;;;;;5771918;28;20512;-68
2023/10/22 03:14:09;;;;;;;1.92;1.55;;;;;;;;;;5771970;28;20043;-67
2023/10/22 03:17:00;;;;;;;1.05;0.70;;;;;;;;;;5772556;28;20050;-67
2023/10/22 03:19:51;;;;;;;0.60;0.55;;;;;;;;;;5772264;28;20429;-67
2023/10/22 03:22:42;;;;;;;2.60;1.48;;;;;;;;;;5771900;28;20490;-67
2023/10/22 03:25:34;;;;;;;2.53;1.83;;;;;;;;;;5771870;28;20505;-67
2023/10/22 03:28:24;;;;;;;1.80;1.52;;;;;;;;;;5771790;28;20063;-67
2023/10/22 03:31:15;;;;;;;3.03;1.65;;;;;;;;;;5772099;28;20051;-68
2023/10/22 03:34:07;;;;;;;2.28;1.52;;;;;;;;;;5771734;28;20047;-68
2023/10/22 03:37:00;;;;;;;1.20;1.05;;;;;;;;;;5772276;28;20047;-67
2023/10/22 03:39:51;;;;;;;1.33;1.20;;;;;;;;;;5770819;28;20054;-67
2023/10/22 03:42:42;;;;;;;1.60;1.45;;;;;;;;;;5772856;28;20054;-67
2023/10/22 03:45:33;;;;;;;3.47;1.73;;;;;;;;;;5775898;28;20138;-68
2023/10/22 03:48:25;;;;;;;1.45;1.00;;;;;;;;;;5775770;28;20058;-68
2023/10/22 03:51:16;;;;;;;5.20;2.25;;;;;;;;;;5775778;28;20055;-67
2023/10/22 03:54:08;;;;;;;1.33;1.17;;;;;;;;;;5775766;28;20051;-67
2023/10/22 03:56:59;;;;;;;3.78;2.53;;;;;;;;;;5776539;28;20099;-68
2023/10/22 03:59:50;;;;;;;2.75;2.25;;;;;;;;;;5775888;28;20043;-67
2023/10/22 04:02:41;;;;;;;5.72;3.50;;;;;;;;;;5775371;28;20050;-67
2023/10/22 04:05:32;;;;;;;9.80;3.85;;;;;;;;;;5775609;28;20458;-67
2023/10/22 04:08:26;;;;;;;7.70;4.03;;;;;;;;;;5775376;28;20070;-68
2023/10/22 04:11:20;;;;;;;8.75;4.35;;;;;;;;;;5775558;28;20106;-68
2023/10/22 04:14:11;;;;;;;8.73;3.70;;;;;;;;;;5774039;28;20043;-68
2023/10/22 04:17:02;;;;;;;8.73;2.45;;;;;;;;;;5775382;28;20051;-68
2023/10/22 04:19:55;;;;;;;6.22;2.97;;;;;;;;;;5775853;28;20043;-67
2023/10/22 04:22:45;;;;;;;5.40;2.88;;;;;;;;;;5775184;28;20130;-67
2023/10/22 04:25:40;;;;;;;3.90;2.42;;;;;;;;;;5775263;28;20050;-68
2023/10/22 04:28:31;;;;;;;3.97;2.10;;;;;;;;;;5775095;28;20047;-67
2023/10/22 04:31:21;;;;;;;2.63;2.03;;;;;;;;;;5775252;28;20058;-67
2023/10/22 04:34:12;;;;;;;3.28;2.10;;;;;;;;;;5774979;28;20421;-68
2023/10/22 04:37:04;;;;;;;13.82;1.65;;;;;;;;;;5774863;28;20047;-68
2023/10/22 04:39:56;;;;;;;8.63;1.55;;;;;;;;;;5774114;28;20050;-67
2023/10/22 04:42:49;;;;;;;2.92;2.50;;;;;;;;;;5774755;28;20047;-68
2023/10/22 04:45:48;;;;;;;3.55;2.15;;;;;;;;;;5774927;28;20054;-67
2023/10/22 04:48:39;;;;;;;2.20;2.00;;;;;;;;;;5774768;28;20051;-67
2023/10/22 04:51:29;;;;;;;2.35;2.15;;;;;;;;;;5774754;28;20047;-68
2023/10/22 04:54:20;;;;;;;2.33;1.90;;;;;;;;;;5774198;28;20055;-68
2023/10/22 04:57:11;;;;;;;4.90;2.40;;;;;;;;;;5774468;28;20059;-68
2023/10/22 05:00:02;;;;;;;2.65;1.42;;;;;;;;;;5774749;28;20433;-70
2023/10/22 05:02:53;;;;;;;2.90;1.67;;;;;;;;;;5774658;28;20126;-68
2023/10/22 05:05:44;;;;;;;3.30;2.00;;;;;;;;;;5774468;28;20417;-68
2023/10/22 05:08:36;;;;;;;3.03;2.03;;;;;;;;;;5774203;28;20126;-68
2023/10/22 05:11:27;;;;;;;2.97;2.08;;;;;;;;;;5774287;28;20522;-68
2023/10/22 05:14:18;;;;;;;6.82;3.40;;;;;;;;;;5774129;28;20110;-68
2023/10/22 05:17:09;;;;;;;8.00;4.10;;;;;;;;;;5774025;28;20052;-68
2023/10/22 05:20:00;;;;;;;6.82;3.42;;;;;;;;;;5774508;28;20417;-68
2023/10/22 05:22:51;;;;;;;3.83;2.88;;;;;;;;;;5774093;28;20054;-68
2023/10/22 05:25:42;;;;;;;3.42;2.45;;;;;;;;;;5773938;28;20051;-68
2023/10/22 05:28:33;;;;;;;11.68;2.85;;;;;;;;;;5773663;28;20047;-68
2023/10/22 05:31:24;;;;;;;2.35;1.77;;;;;;;;;;5773860;28;20047;-68
2023/10/22 05:34:15;;;;;;;1.58;1.48;;;;;;;;;;5773816;28;20166;-68
2023/10/22 05:37:07;;;;;;;3.05;1.60;;;;;;;;;;5773587;28;20051;-69
2023/10/22 05:39:59;;;;;;;2.20;1.70;;;;;;;;;;5774200;28;20043;-68
2023/10/22 05:42:50;;;;;;;2.85;1.85;;;;;;;;;;5773571;28;20055;-68
2023/10/22 05:45:40;;;;;;;1.15;0.88;;;;;;;;;;5773384;28;20433;-68
2023/10/22 05:48:31;;;;;;;0.52;0.52;;;;;;;;;;5773338;28;20047;-68
2023/10/22 05:51:23;;;;;;;0.73;0.63;;;;;;;;;;5773635;28;20074;-68
2023/10/22 05:54:14;;;;;;;0.88;0.82;;;;;;;;;;5773226;28;20564;-68
2023/10/22 05:57:05;;;;;;;5.93;0.70;;;;;;;;;;5773240;28;20054;-68
2023/10/22 05:59:57;;;;;;;2.15;1.48;;;;;;;;;;5773703;28;20047;-68
2023/10/22 06:02:48;;;;;;;0.28;0.28;;;;;;;;;;5772875;28;20493;-68
2023/10/22 06:05:40;;;;;;;0.25;0.25;;;;;;;;;;5772561;28;20126;-68
2023/10/22 06:08:30;;;;;;;0.90;0.80;;;;;;;;;;5772745;28;20052;-68
2023/10/22 06:11:21;;;;;;;2.03;1.30;;;;;;;;;;5773017;28;20085;-68
2023/10/22 06:14:12;;;;;;;13.30;0.88;;;;;;;;;;5773795;28;20058;-68
2023/10/22 06:17:07;;;;;;;0.55;0.50;;;;;;;;;;5773439;28;20526;-68
2023/10/22 06:19:59;;;;;;;0.70;0.60;;;;;;;;;;5773989;28;20150;-68
2023/10/22 06:22:50;;;;;;;1.05;0.70;;;;;;;;;;5773544;28;20486;-68
2023/10/22 06:25:44;;;;;;;0.85;0.65;;;;;;;;;;5772988;28;20457;-68
2023/10/22 06:28:35;;;;;;;0.55;0.55;;;;;;;;;;5773036;28;20047;-68
2023/10/22 06:31:25;;;;;;;18.67;1.23;;;;;;;;;;5773156;28;20054;-68
2023/10/22 06:34:16;;;;;;;1.00;0.90;;;;;;;;;;5773094;28;20047;-68
2023/10/22 06:37:07;;;;;;;1.67;1.10;;;;;;;;;;5772580;28;20047;-68
2023/10/22 06:40:01;;;;;;;1.08;0.98;;;;;;;;;;5773165;28;20051;-68
2023/10/22 06:42:52;;;;;;;2.75;0.77;;;;;;;;;;5771340;28;20039;-68
2023/10/22 06:45:44;;;;;;;1.48;1.08;;;;;;;;;;5772588;28;20051;-68
2023/10/22 06:48:35;;;;;;;0.85;0.65;;;;;;;;;;5772532;28;20533;-68
2023/10/22 06:51:26;;;;;;;1.10;0.40;;;;;;;;;;5772832;28;20087;-68
2023/10/22 06:54:17;;;;;;;1.13;0.50;;;;;;;;;;5771864;28;20106;-68
2023/10/22 06:57:08;;;;;;;2.13;0.80;;;;;;;;;;5772549;28;20063;-68
2023/10/22 06:59:59;;;;;;;1.88;1.00;;;;;;;;;;5772909;28;20105;-68
2023/10/22 07:02:50;;;;;;;1.02;0.88;;;;;;;;;;5772165;28;20039;-68
2023/10/22 07:05:43;;;;;;;0.60;0.52;;;;;;;;;;5773100;28;20454;-68
2023/10/22 07:08:37;;;;;;;2.25;1.40;;;;;;;;;;5774354;28;20059;-68
2023/10/22 07:11:33;;;;;;;4.50;1.85;;;;;;;;;;5772541;28;20063;-68
2023/10/22 07:14:24;;;;;;;2.42;1.88;;;;;;;;;;5772267;28;20135;-68
2023/10/22 07:17:15;;;;;;;2.83;1.10;;;;;;;;;;5774224;28;20058;-68
2023/10/22 07:20:06;;;;;;;1.95;1.52;;;;;;;;;;5776102;28;20063;-68
2023/10/22 07:22:58;;;;;;;3.08;1.90;;;;;;;;;;5777474;28;20576;-68
2023/10/22 07:25:56;;;;;;;2.17;1.65;;;;;;;;;;5777284;28;20052;-68
2023/10/22 07:28:49;;;;;;;1.77;1.30;;;;;;;;;;5777751;28;20075;-68
2023/10/22 07:31:46;;;;;;;1.65;1.30;;;;;;;;;;5778723;28;20098;-68
2023/10/22 07:34:37;;;;;;;4.53;1.92;;;;;;;;;;5776585;28;20424;-68
2023/10/22 07:37:28;;;;;;;4.43;2.05;;;;;;;;;;5776288;28;20134;-68
2023/10/22 07:40:19;;;;;;;3.28;2.58;;;;;;;;;;5775684;28;20074;-68
2023/10/22 07:43:10;;;;;;;18.83;13.63;;;;;;;;;;5775141;28;20413;-68
2023/10/22 07:46:01;;;;;;;38.00;24.27;;;;;;;;;;5776134;28;20051;-69
2023/10/22 07:48:52;;;;;;;43.38;25.50;;;;;;;;;;5775088;28;20051;-68
2023/10/22 07:51:43;;;;;;;62.58;29.90;;;;;;;;;;5775948;28;20054;-68
2023/10/22 07:54:34;;;;;;;13.50;9.50;;;;;;;;;;5775961;28;20614;-68
2023/10/22 07:57:27;;;;;;;20.38;11.57;;;;;;;;;;5775665;28;20051;-68
2023/10/22 08:00:18;;;;;;;7.97;4.68;;;;;;;;;;5775828;28;20047;-68
2023/10/22 08:03:08;;;;;;;11.13;8.38;;;;;;;;;;5775561;28;20043;-68
2023/10/22 08:06:01;;;;;;;5.40;1.80;;;;;;;;;;5775897;28;20047;-67
2023/10/22 08:08:54;;;;;;;6.57;3.70;;;;;;;;;;5775831;28;20039;-68
2023/10/22 08:11:45;;;;;;;2.10;1.75;;;;;;;;;;5775641;28;20046;-68
2023/10/22 08:14:36;;;;;;;3.38;2.03;;;;;;;;;;5775411;28;20413;-67
2023/10/22 08:17:27;;;;;;;2.10;1.90;;;;;;;;;;5775361;28;20047;-68
2023/10/22 08:20:18;;;;;;;1.83;1.73;;;;;;;;;;5775331;28;20047;-68
2023/10/22 08:23:09;;;;;;;3.35;2.22;;;;;;;;;;5775137;28;20050;-68
2023/10/22 08:26:00;;;;;;;2.88;2.05;;;;;;;;;;5775502;28;20118;-68
2023/10/22 08:28:51;;;;;;;3.38;2.70;;;;;;;;;;5771403;28;20539;-68
2023/10/22 08:31:41;;;;;;;2.08;1.48;;;;;;;;;;5795684;28;20469;-68
2023/10/22 08:34:32;;;;;;;1.27;1.02;;;;;;;;;;5759766;28;20043;-68
2023/10/22 08:37:23;;;;;;;1.27;0.77;;;;;;;;;;5752425;28;20052;-68
2023/10/22 08:40:14;;;;;;;1.35;0.80;;;;;;;;;;5761414;28;20054;-68
2023/10/22 08:43:07;;;;;;;1.23;1.13;;;;;;;;;;5767528;28;20055;-68
2023/10/22 08:45:59;;;;;;;4.20;1.83;;;;;;;;;;5753497;28;20047;-68
2023/10/22 08:48:50;;;;;;;5.40;2.13;;;;;;;;;;5751596;28;20074;-68
2023/10/22 08:51:41;;;;;;;1.88;1.05;;;;;;;;;;5773128;28;20050;-68
2023/10/22 08:54:32;;;;;;;7.78;1.58;;;;;;;;;;5756336;28;20060;-68
2023/10/22 08:57:24;;;;;;;4.95;2.88;;;;;;;;;;5752310;28;20056;-68
2023/10/22 09:00:18;;;;;;;4.13;3.50;;;;;;;;;;5760772;28;20453;-68
2023/10/22 09:03:09;;;;;;;2.28;1.80;;;;;;;;;;5766887;28;20124;-68
2023/10/22 09:06:01;;;;;;;3.22;2.25;;;;;;;;;;5753358;28;20058;-68
2023/10/22 09:08:53;;;;;;;15.55;6.82;;;;;;;;;;5753193;28;20480;-68
2023/10/22 09:11:54;;;;;;;12.13;5.90;;;;;;;;;;5771983;28;20450;-68
2023/10/22 09:14:46;;;;;;;14.13;6.93;;;;;;;;;;5754500;28;20044;-68
2023/10/22 09:17:37;;;;;;;10.02;7.82;;;;;;;;;;5752705;28;20194;-68
2023/10/22 09:20:29;;;;;;;13.98;9.15;;;;;;;;;;5761016;28;20579;-68
2023/10/22 09:23:22;;;;;;;6.80;3.60;;;;;;;;;;5764451;28;20066;-68
2023/10/22 09:26:13;;;;;;;5.10;3.55;;;;;;;;;;5752661;28;20517;-68
2023/10/22 09:29:07;;;;;;;13.27;4.10;;;;;;;;;;5751744;28;20043;-68
2023/10/22 09:31:59;;;;;;;4.65;2.70;;;;;;;;;;5772036;28;20133;-68
2023/10/22 09:34:50;;;;;;;7.93;4.68;;;;;;;;;;5751214;28;20041;-68
2023/10/22 09:37:53;;;;;;;7.72;4.03;;;;;;;;;;5749998;28;20138;-68
2023/10/22 09:40:44;;;;;;;9.55;5.45;;;;;;;;;;5750480;28;20055;-68
2023/10/22 09:43:35;;;;;;;15.32;7.22;;;;;;;;;;5751384;28;20460;-68
2023/10/22 09:46:32;;;;;;;19.98;5.75;;;;;;;;;;5751463;28;20051;-68
2023/10/22 09:49:23;;;;;;;12.40;5.18;;;;;;;;;;5751403;28;20418;-68
2023/10/22 09:52:16;;;;;;;6.50;4.78;;;;;;;;;;5750178;28;20455;-68
2023/10/22 09:55:15;;;;;;;4.25;3.08;;;;;;;;;;5749361;28;20144;-68
2023/10/22 09:58:15;;;;;;;8.70;6.03;;;;;;;;;;5750905;28;20051;-68
2023/10/22 10:01:09;;;;;;;7.68;3.45;;;;;;;;;;5750417;28;20048;-69
2023/10/22 10:04:01;;;;;;;9.20;4.85;;;;;;;;;;5751246;28;20055;-68
2023/10/22 10:06:56;;;;;;;5.22;3.38;;;;;;;;;;5750830;28;20379;-68
2023/10/22 10:09:47;;;;;;;5.43;3.30;;;;;;;;;;5750441;28;20055;-68
2023/10/22 10:12:40;;;;;;;2.63;2.30;;;;;;;;;;5750296;28;20418;-68
2023/10/22 10:15:35;;;;;;;2.63;2.17;;;;;;;;;;5750014;28;20130;-68
2023/10/22 10:19:03;;;;;;;7.25;4.60;;;;;;;;;;5750141;28;20095;-68
2023/10/22 10:21:54;;;;;;;10.90;4.45;;;;;;;;;;5750588;28;20039;-68
2023/10/22 10:24:45;;;;;;;4.43;2.97;;;;;;;;;;5750303;28;20440;-68
2023/10/22 10:27:50;;;;;;;21.67;9.32;;;;;;;;;;5748521;28;20051;-68
2023/10/22 10:30:41;;;;;;;4.10;3.03;;;;;;;;;;5748944;28;20597;-68
2023/10/22 10:34:03;;;;;;;2.22;1.90;;;;;;;;;;5750123;28;20127;-68
2023/10/22 10:36:56;;;;;;;9.00;5.28;;;;;;;;;;5750204;28;20042;-68
2023/10/22 10:39:51;;;;;;;5.68;3.45;;;;;;;;;;5749906;28;20163;-68
2023/10/22 10:42:42;;;;;;;17.58;6.65;;;;;;;;;;5749685;28;20055;-68
2023/10/22 10:45:33;;;;;;;7.80;4.88;;;;;;;;;;5749864;28;20051;-68
2023/10/22 10:48:45;;;;;;;6.75;2.88;;;;;;;;;;5749739;28;20047;-68
2023/10/22 10:51:36;;;;;;;8.77;3.83;;;;;;;;;;5749652;28;20048;-68
2023/10/22 10:54:27;;;;;;;1.13;0.88;;;;;;;;;;5748543;28;20051;-68
2023/10/22 10:57:36;;;;;;;3.00;1.95;;;;;;;;;;5749450;28;20050;-67
2023/10/22 11:00:31;;;;;;;2.88;2.10;;;;;;;;;;5749962;28;20055;-68
2023/10/22 11:03:22;;;;;;;3.95;2.53;;;;;;;;;;5749595;28;20058;-68
2023/10/22 11:06:14;;;;;;;4.90;2.42;;;;;;;;;;5749589;28;20126;-68
2023/10/22 11:09:05;;;;;;;9.18;3.10;;;;;;;;;;5748510;28;20422;-68
2023/10/22 11:12:05;;;;;;;4.95;3.03;;;;;;;;;;5750472;28;20530;-68
2023/10/22 11:14:56;;;;;;;7.85;4.55;;;;;;;;;;5750071;28;20649;-68
2023/10/22 11:17:47;;;;;;;6.40;4.03;;;;;;;;;;5749605;28;20103;-67
2023/10/22 11:20:39;;;;;;;3.25;2.28;;;;;;;;;;5749699;28;20123;-68
2023/10/22 11:23:34;;;;;;;7.72;3.50;;;;;;;;;;5749405;28;20052;-68
2023/10/22 11:26:26;;;;;;;7.00;4.28;;;;;;;;;;5748355;29;20055;-68
2023/10/22 11:29:17;;;;;;;4.78;2.88;;;;;;;;;;5749320;28;20059;-68
2023/10/22 11:32:13;;;;;;;13.27;6.13;;;;;;;;;;5749514;28;20843;-69
2023/10/22 11:35:07;;;;;;;35.58;11.15;;;;;;;;;;5749497;28;20047;-68
2023/10/22 11:37:58;;;;;;;7.07;3.45;;;;;;;;;;5749774;28;20059;-67
2023/10/22 11:40:54;;;;;;;8.50;5.63;;;;;;;;;;5749662;28;20059;-68
2023/10/22 11:43:46;;;;;;;9.10;3.33;;;;;;;;;;5749333;28;20048;-68
2023/10/22 11:46:41;;;;;;;6.95;3.05;;;;;;;;;;5749648;28;20135;-68
2023/10/22 11:49:45;;;;;;;9.55;6.15;;;;;;;;;;5749506;28;20078;-68
2023/10/22 11:52:39;;;;;;;8.32;3.28;;;;;;;;;;5748202;28;20047;-68
2023/10/22 11:55:30;;;;;;;5.53;3.45;;;;;;;;;;5749474;28;20426;-68
2023/10/22 11:58:27;;;;;;;10.35;5.30;;;;;;;;;;5763440;28;20191;-68
2023/10/22 12:01:17;;;;;;;7.68;3.90;;;;;;;;;;5749429;28;20437;-68
2023/10/22 12:04:08;;;;;;;4.63;3.85;;;;;;;;;;5750943;28;20122;-68
2023/10/22 12:07:00;;;;;;;9.15;3.67;;;;;;;;;;5753753;28;20126;-68
2023/10/22 12:09:50;;;;;;;8.60;5.20;;;;;;;;;;5754164;28;20051;-69
2023/10/22 12:12:41;;;;;;;8.55;3.33;;;;;;;;;;5753812;28;20058;-68
2023/10/22 12:15:33;;;;;;;5.88;2.72;;;;;;;;;;5753407;28;20044;-68
2023/10/22 12:18:24;;;;;;;6.82;3.13;;;;;;;;;;5752956;28;20051;-68
2023/10/22 12:21:15;;;;;;;5.00;3.15;;;;;;;;;;5753294;28;20521;-68
2023/10/22 12:24:06;;;;;;;6.80;4.22;;;;;;;;;;5753068;28;20059;-68
2023/10/22 12:27:13;;;;;;;3.00;2.03;;;;;;;;;;5752898;28;20129;-68
2023/10/22 12:30:06;;;;;;;1.85;1.52;;;;;;;;;;5753096;28;20132;-69
2023/10/22 12:32:57;;;;;;;1.60;1.42;;;;;;;;;;5754204;28;20365;-68
2023/10/22 12:35:48;;;;;;;4.57;2.95;;;;;;;;;;5773628;28;20061;-68
2023/10/22 12:38:38;;;;;;;1.13;1.05;;;;;;;;;;5775007;28;20062;-68
2023/10/22 12:41:29;;;;;;;2.92;2.17;;;;;;;;;;5774604;28;20043;-69
2023/10/22 12:44:24;;;;;;;11.98;6.28;;;;;;;;;;5774580;28;20055;-68
2023/10/22 12:47:15;;;;;;;6.05;3.67;;;;;;;;;;5774820;28;20134;-68
2023/10/22 12:50:06;;;;;;;14.13;5.95;;;;;;;;;;5774883;28;20130;-69
2023/10/22 12:52:57;;;;;;;5.53;2.88;;;;;;;;;;5775081;28;20161;-68
2023/10/22 12:55:53;;;;;;;6.28;4.05;;;;;;;;;;5774455;28;20054;-68
2023/10/22 12:58:44;;;;;;;7.70;5.03;;;;;;;;;;5774524;28;20051;-68
2023/10/22 13:01:35;;;;;;;3.42;1.88;;;;;;;;;;5770437;28;20058;-68
2023/10/22 13:04:27;;;;;;;5.72;3.83;;;;;;;;;;5774556;28;20051;-68
2023/10/22 13:07:18;;;;;;;3.05;1.83;;;;;;;;;;5774459;28;20062;-68
2023/10/22 13:10:09;;;;;;;1.50;1.13;;;;;;;;;;5774497;28;20477;-69
2023/10/22 13:13:00;;;;;;;2.45;2.05;;;;;;;;;;5774565;28;20061;-68
2023/10/22 13:16:00;;;;;;;4.00;2.97;;;;;;;;;;5774226;28;20043;-68
2023/10/22 13:18:51;;;;;;;5.50;3.13;;;;;;;;;;5774839;28;20054;-68
2023/10/22 13:21:42;;;;;;;13.60;3.72;;;;;;;;;;5774329;28;20054;-68
2023/10/22 13:24:34;;;;;;;1.13;1.02;;;;;;;;;;5774789;28;20137;-68
2023/10/22 13:27:25;;;;;;;1.90;1.15;;;;;;;;;;5774034;28;20051;-68
2023/10/22 13:30:15;;;;;;;1.10;1.00;;;;;;;;;;5773635;28;20490;-68
2023/10/22 13:33:07;;;;;;;6.70;3.35;;;;;;;;;;5772596;28;20440;-68
2023/10/22 13:36:03;;;;;;;18.52;6.28;;;;;;;;;;5774356;28;20051;-68
2023/10/22 13:38:54;;;;;;;4.18;1.70;;;;;;;;;;5774305;28;20118;-68
2023/10/22 13:41:45;;;;;;;3.97;2.88;;;;;;;;;;5773698;28;20129;-68
2023/10/22 13:44:36;;;;;;;0.70;0.55;;;;;;;;;;5773576;28;20047;-68
2023/10/22 13:47:27;;;;;;;1.83;1.30;;;;;;;;;;5773446;28;20057;-68
2023/10/22 13:50:18;;;;;;;2.25;0.70;;;;;;;;;;5773398;28;20075;-68
2023/10/22 13:53:09;;;;;;;1.60;1.20;;;;;;;;;;5773327;28;20094;-69
2023/10/22 13:55:59;;;;;;;0.90;0.65;;;;;;;;;;5773901;28;20051;-68
2023/10/22 13:58:50;;;;;;;2.28;1.05;;;;;;;;;;5773953;28;20051;-68
2023/10/22 14:01:41;;;;;;;1.42;0.73;;;;;;;;;;5772004;28;20497;-68
2023/10/22 14:04:32;;;;;;;1.95;0.80;;;;;;;;;;5773113;28;20055;-68
2023/10/22 14:07:23;;;;;;;5.80;1.90;;;;;;;;;;5772876;28;20137;-68
2023/10/22 14:10:14;;;;;;;1.88;1.45;;;;;;;;;;5773058;28;20047;-68
2023/10/22 14:13:05;;;;;;;2.67;1.23;;;;;;;;;;5773041;28;20055;-69
2023/10/22 14:16:07;;;;;;;3.13;1.80;;;;;;;;;;5773517;28;20671;-68
2023/10/22 14:18:57;;;;;;;2.88;1.80;;;;;;;;;;5773670;28;20039;-68
2023/10/22 14:21:48;;;;;;;3.58;1.90;;;;;;;;;;5773019;28;20133;-67
2023/10/22 14:24:39;;;;;;;0.73;0.73;;;;;;;;;;5772964;28;20053;-68
2023/10/22 14:27:31;;;;;;;2.25;1.30;;;;;;;;;;5772324;28;20114;-68
2023/10/22 14:30:22;;;;;;;2.38;1.40;;;;;;;;;;5772672;28;20047;-68
2023/10/22 14:33:13;;;;;;;7.03;1.90;;;;;;;;;;5771540;28;20083;-68
2023/10/22 14:36:06;;;;;;;7.00;2.40;;;;;;;;;;5772885;28;20050;-69
2023/10/22 14:38:57;;;;;;;1.40;1.27;;;;;;;;;;5773580;28;20484;-68
2023/10/22 14:41:47;;;;;;;2.85;1.30;;;;;;;;;;5772631;28;20071;-68
2023/10/22 14:44:38;;;;;;;0.70;0.70;;;;;;;;;;5771231;28;20047;-68
2023/10/22 14:47:29;;;;;;;3.58;2.28;;;;;;;;;;5778234;28;20054;-68
2023/10/22 14:50:20;;;;;;;1.83;0.88;;;;;;;;;;5772738;28;20055;-69
2023/10/22 14:53:11;;;;;;;1.35;0.80;;;;;;;;;;5771113;28;20047;-70
2023/10/22 14:56:07;;;;;;;1.67;0.68;;;;;;;;;;5771187;28;20044;-70
2023/10/22 14:58:58;;;;;;;1.05;0.82;;;;;;;;;;5772001;28;20058;-68
2023/10/22 15:01:50;;;;;;;0.65;0.65;;;;;;;;;;5769703;28;20054;-68
2023/10/22 15:04:40;;;;;;;1.92;1.67;;;;;;;;;;5770916;28;20102;-68
2023/10/22 15:07:34;;;;;;;3.33;1.48;;;;;;;;;;5771586;28;20102;-69
2023/10/22 15:10:25;;;;;;;1.10;0.82;;;;;;;;;;5768202;28;20097;-69
2023/10/22 15:13:15;;;;;;;3.03;1.67;;;;;;;;;;5772384;28;20082;-68
2023/10/22 15:16:11;;;;;;;1.15;1.02;;;;;;;;;;5772069;28;20378;-69
2023/10/22 15:19:02;;;;;;;4.72;1.55;;;;;;;;;;5772702;28;20498;-69
2023/10/22 15:21:53;;;;;;;1.42;1.05;;;;;;;;;;5772617;28;20043;-68
2023/10/22 15:24:43;;;;;;;0.65;0.60;;;;;;;;;;5772276;28;20047;-69
2023/10/22 15:27:34;;;;;;;0.65;0.65;;;;;;;;;;5772161;28;20059;-69
2023/10/22 15:30:28;;;;;;;1.33;1.20;;;;;;;;;;5768788;28;20052;-69
2023/10/22 15:33:19;;;;;;;1.92;1.27;;;;;;;;;;5752818;28;20450;-69
2023/10/22 15:36:09;;;;;;;2.90;1.55;;;;;;;;;;5771803;28;20126;-70
2023/10/22 15:39:00;;;;;;;7.05;0.68;;;;;;;;;;5771243;28;20604;-68
2023/10/22 15:41:51;;;;;;;1.10;1.00;;;;;;;;;;5773375;28;20070;-69
2023/10/22 15:44:42;;;;;;;4.95;3.33;;;;;;;;;;5776186;28;20047;-69
2023/10/22 15:47:34;;;;;;;3.40;2.15;;;;;;;;;;5754428;28;20047;-69
2023/10/22 15:50:26;;;;;;;2.22;0.77;;;;;;;;;;5753906;28;20051;-69
2023/10/22 15:53:18;;;;;;;1.92;0.82;;;;;;;;;;5746996;28;20044;-69
2023/10/22 15:56:09;;;;;;;1.17;0.98;;;;;;;;;;5777460;28;20079;-69
2023/10/22 15:59:02;;;;;;;2.22;0.88;;;;;;;;;;5754235;28;20055;-69
2023/10/22 16:01:53;;;;;;;1.17;0.77;;;;;;;;;;5753676;28;20142;-69
2023/10/22 16:04:43;;;;;;;8.32;3.70;;;;;;;;;;5750249;28;20078;-69
2023/10/22 16:07:35;;;;;;;3.17;1.85;;;;;;;;;;5769919;28;20055;-69
2023/10/22 16:10:25;;;;;;;12.00;7.88;;;;;;;;;;5772896;28;20078;-69
2023/10/22 16:13:18;;;;;;;12.95;5.45;;;;;;;;;;5774544;28;20051;-69
2023/10/22 16:16:09;;;;;;;4.47;2.45;;;;;;;;;;5750898;28;20078;-70
2023/10/22 16:19:00;;;;;;;3.42;1.60;;;;;;;;;;5757280;28;20055;-69
2023/10/22 16:21:53;;;;;;;2.17;1.60;;;;;;;;;;5839022;23;20042;-74
2023/10/22 16:24:45;;;;;;;2.63;1.27;;;;;;;;;;5840184;28;20050;-72
2023/10/22 16:27:38;;;;;;;3.40;1.33;;;;;;;;;;5848336;28;20103;-74
2023/10/22 16:30:31;;;;;;;5.63;1.77;;;;;;;;;;5863405;28;20049;-73
2023/10/22 16:33:22;;;;;;;9.73;3.03;;;;;;;;;;5858981;28;20049;-72
2023/10/22 16:36:13;;;;;;;4.60;3.05;;;;;;;;;;5858710;28;20046;-74
2023/10/22 16:39:05;;;;;;;6.45;1.70;;;;;;;;;;5853899;28;20053;-73
2023/10/22 16:41:56;;;;;;;1.77;1.17;;;;;;;;;;5882558;28;20049;-73
2023/10/22 16:44:51;;;;;;;5.13;1.38;;;;;;;;;;5842516;28;20061;-74
2023/10/22 16:47:42;;;;;;;2.55;1.45;;;;;;;;;;5864669;28;20049;-76
2023/10/22 16:50:33;;;;;;;1.75;1.02;;;;;;;;;;5866169;28;20099;-72
2023/10/22 16:53:24;;;;;;;3.78;1.85;;;;;;;;;;5862413;28;20046;-73
2023/10/22 16:56:16;;;;;;;2.40;1.63;;;;;;;;;;5842914;28;20069;-73
2023/10/22 16:59:07;;;;;;;1.58;1.15;;;;;;;;;;5853200;28;20121;-74
2023/10/22 17:01:58;;;;;;;1.35;0.60;;;;;;;;;;5866611;28;20041;-72
2023/10/22 17:04:49;;;;;;;0.70;0.70;;;;;;;;;;5851548;28;20050;-73
2023/10/22 17:07:40;;;;;;;2.63;1.25;;;;;;;;;;5841731;28;20048;-73